sensor_id;sensor_type;location;lat;lon;timestamp;P1;durP1;ratioP1;P2;durP2;ratioP2
11504;SDS011;5809;53.262;10.408;2023-04-24T00:01:28;4.82;;;4.25;;
11504;SDS011;5809;53.262;10.408;2023-04-24T00:03:55;4.88;;;4.38;;
11504;SDS011;5809;53.262;10.408;2023-04-24T00:06:24;5.07;;;4.07;;
11504;SDS011;5809;53.262;10.408;2023-04-24T00:08:58;5.00;;;4.40;;
11504;SDS011;5809;53.262;10.408;2023-04-24T00:11:25;4.68;;;4.22;;
11504;SDS011;5809;53.262;10.408;2023-04-24T00:13:53;4.57;;;4.18;;
11504;SDS011;5809;53.262;10.408;2023-04-24T00:16:21;5.22;;;4.68;;
11504;SDS011;5809;53.262;10.408;2023-04-24T00:18:49;4.80;;;4.30;;
11504;SDS011;5809;53.262;10.408;2023-04-24T00:21:17;4.88;;;4.22;;
11504;SDS011;5809;53.262;10.408;2023-04-24T00:23:44;4.72;;;4.18;;
11504;SDS011;5809;53.262;10.408;2023-04-24T00:26:11;4.50;;;4.10;;
11504;SDS011;5809;53.262;10.408;2023-04-24T00:28:53;6.53;;;4.28;;
11504;SDS011;5809;53.262;10.408;2023-04-24T00:31:20;5.18;;;4.18;;
11504;SDS011;5809;53.262;10.408;2023-04-24T00:33:47;6.15;;;4.28;;
11504;SDS011;5809;53.262;10.408;2023-04-24T00:36:15;4.68;;;4.13;;
11504;SDS011;5809;53.262;10.408;2023-04-24T00:38:44;4.65;;;4.25;;
11504;SDS011;5809;53.262;10.408;2023-04-24T00:41:11;7.97;;;4.30;;
11504;SDS011;5809;53.262;10.408;2023-04-24T00:43:38;4.63;;;4.22;;
11504;SDS011;5809;53.262;10.408;2023-04-24T00:46:07;4.85;;;3.90;;
11504;SDS011;5809;53.262;10.408;2023-04-24T00:48:34;4.30;;;3.70;;
11504;SDS011;5809;53.262;10.408;2023-04-24T00:51:01;5.53;;;4.22;;
11504;SDS011;5809;53.262;10.408;2023-04-24T00:53:28;4.35;;;3.95;;
11504;SDS011;5809;53.262;10.408;2023-04-24T00:55:55;5.15;;;3.65;;
11504;SDS011;5809;53.262;10.408;2023-04-24T00:58:22;4.10;;;3.70;;
11504;SDS011;5809;53.262;10.408;2023-04-24T01:00:50;4.28;;;3.97;;
11504;SDS011;5809;53.262;10.408;2023-04-24T01:03:20;4.22;;;3.63;;
11504;SDS011;5809;53.262;10.408;2023-04-24T01:05:48;4.00;;;3.60;;
11504;SDS011;5809;53.262;10.408;2023-04-24T01:08:15;4.47;;;3.50;;
11504;SDS011;5809;53.262;10.408;2023-04-24T01:10:42;4.18;;;3.60;;
11504;SDS011;5809;53.262;10.408;2023-04-24T01:13:11;3.83;;;3.50;;
11504;SDS011;5809;53.262;10.408;2023-04-24T01:15:38;4.82;;;3.63;;
11504;SDS011;5809;53.262;10.408;2023-04-24T01:18:04;3.72;;;3.20;;
11504;SDS011;5809;53.262;10.408;2023-04-24T01:20:33;4.00;;;3.60;;
11504;SDS011;5809;53.262;10.408;2023-04-24T01:23:03;4.45;;;3.63;;
11504;SDS011;5809;53.262;10.408;2023-04-24T01:25:30;3.60;;;3.20;;
11504;SDS011;5809;53.262;10.408;2023-04-24T01:27:57;4.63;;;3.28;;
11504;SDS011;5809;53.262;10.408;2023-04-24T01:30:24;4.43;;;3.22;;
11504;SDS011;5809;53.262;10.408;2023-04-24T01:32:51;4.65;;;3.03;;
11504;SDS011;5809;53.262;10.408;2023-04-24T01:35:19;5.07;;;3.42;;
11504;SDS011;5809;53.262;10.408;2023-04-24T01:37:46;5.57;;;3.40;;
11504;SDS011;5809;53.262;10.408;2023-04-24T01:40:15;3.20;;;2.90;;
11504;SDS011;5809;53.262;10.408;2023-04-24T01:42:42;4.35;;;2.90;;
11504;SDS011;5809;53.262;10.408;2023-04-24T01:45:10;4.93;;;3.10;;
11504;SDS011;5809;53.262;10.408;2023-04-24T01:47:37;3.72;;;2.95;;
11504;SDS011;5809;53.262;10.408;2023-04-24T01:50:05;2.92;;;2.67;;
11504;SDS011;5809;53.262;10.408;2023-04-24T01:52:32;2.63;;;2.42;;
11504;SDS011;5809;53.262;10.408;2023-04-24T01:55:01;3.33;;;3.00;;
11504;SDS011;5809;53.262;10.408;2023-04-24T01:57:30;3.15;;;2.38;;
11504;SDS011;5809;53.262;10.408;2023-04-24T01:59:57;3.30;;;2.50;;
11504;SDS011;5809;53.262;10.408;2023-04-24T02:02:24;3.72;;;2.22;;
11504;SDS011;5809;53.262;10.408;2023-04-24T02:04:52;2.08;;;1.80;;
11504;SDS011;5809;53.262;10.408;2023-04-24T02:07:19;2.42;;;1.77;;
11504;SDS011;5809;53.262;10.408;2023-04-24T02:09:46;1.77;;;1.65;;
11504;SDS011;5809;53.262;10.408;2023-04-24T02:12:14;2.42;;;2.03;;
11504;SDS011;5809;53.262;10.408;2023-04-24T02:14:43;1.70;;;1.60;;
11504;SDS011;5809;53.262;10.408;2023-04-24T02:17:10;2.15;;;1.58;;
11504;SDS011;5809;53.262;10.408;2023-04-24T02:19:40;2.38;;;1.50;;
11504;SDS011;5809;53.262;10.408;2023-04-24T02:22:07;2.03;;;1.40;;
11504;SDS011;5809;53.262;10.408;2023-04-24T02:24:35;1.92;;;1.65;;
11504;SDS011;5809;53.262;10.408;2023-04-24T02:27:02;1.92;;;1.77;;
11504;SDS011;5809;53.262;10.408;2023-04-24T02:29:30;3.20;;;1.80;;
11504;SDS011;5809;53.262;10.408;2023-04-24T02:31:58;1.83;;;1.55;;
11504;SDS011;5809;53.262;10.408;2023-04-24T02:34:25;1.80;;;1.50;;
11504;SDS011;5809;53.262;10.408;2023-04-24T02:36:52;1.60;;;1.50;;
11504;SDS011;5809;53.262;10.408;2023-04-24T02:39:19;1.85;;;1.55;;
11504;SDS011;5809;53.262;10.408;2023-04-24T02:41:46;4.38;;;1.98;;
11504;SDS011;5809;53.262;10.408;2023-04-24T02:44:14;4.70;;;1.60;;
11504;SDS011;5809;53.262;10.408;2023-04-24T02:46:42;2.20;;;1.50;;
11504;SDS011;5809;53.262;10.408;2023-04-24T02:49:11;1.92;;;1.50;;
11504;SDS011;5809;53.262;10.408;2023-04-24T02:51:37;2.10;;;1.50;;
11504;SDS011;5809;53.262;10.408;2023-04-24T02:54:06;1.38;;;1.27;;
11504;SDS011;5809;53.262;10.408;2023-04-24T02:56:34;1.30;;;1.20;;
11504;SDS011;5809;53.262;10.408;2023-04-24T02:59:01;2.15;;;1.20;;
11504;SDS011;5809;53.262;10.408;2023-04-24T03:01:28;2.15;;;1.35;;
11504;SDS011;5809;53.262;10.408;2023-04-24T03:03:55;1.63;;;1.30;;
11504;SDS011;5809;53.262;10.408;2023-04-24T03:06:23;3.25;;;1.50;;
11504;SDS011;5809;53.262;10.408;2023-04-24T03:08:52;1.40;;;1.30;;
11504;SDS011;5809;53.262;10.408;2023-04-24T03:11:18;1.60;;;1.50;;
11504;SDS011;5809;53.262;10.408;2023-04-24T03:13:45;3.13;;;1.50;;
11504;SDS011;5809;53.262;10.408;2023-04-24T03:16:13;1.50;;;1.30;;
11504;SDS011;5809;53.262;10.408;2023-04-24T03:18:40;1.20;;;1.10;;
11504;SDS011;5809;53.262;10.408;2023-04-24T03:21:07;1.40;;;1.30;;
11504;SDS011;5809;53.262;10.408;2023-04-24T03:23:35;1.50;;;1.40;;
11504;SDS011;5809;53.262;10.408;2023-04-24T03:26:02;2.63;;;1.67;;
11504;SDS011;5809;53.262;10.408;2023-04-24T03:28:29;1.40;;;1.30;;
11504;SDS011;5809;53.262;10.408;2023-04-24T03:30:56;1.60;;;1.50;;
11504;SDS011;5809;53.262;10.408;2023-04-24T03:33:23;1.48;;;1.30;;
11504;SDS011;5809;53.262;10.408;2023-04-24T03:35:50;1.77;;;1.20;;
11504;SDS011;5809;53.262;10.408;2023-04-24T03:38:17;1.33;;;1.23;;
11504;SDS011;5809;53.262;10.408;2023-04-24T03:40:45;1.40;;;1.30;;
11504;SDS011;5809;53.262;10.408;2023-04-24T03:43:12;1.40;;;1.30;;
11504;SDS011;5809;53.262;10.408;2023-04-24T03:45:39;1.67;;;1.13;;
11504;SDS011;5809;53.262;10.408;2023-04-24T03:48:06;1.73;;;1.27;;
11504;SDS011;5809;53.262;10.408;2023-04-24T03:50:33;1.70;;;1.30;;
11504;SDS011;5809;53.262;10.408;2023-04-24T03:53:00;3.37;;;1.27;;
11504;SDS011;5809;53.262;10.408;2023-04-24T03:55:27;1.80;;;1.20;;
11504;SDS011;5809;53.262;10.408;2023-04-24T03:57:56;1.50;;;1.10;;
11504;SDS011;5809;53.262;10.408;2023-04-24T04:00:23;1.30;;;1.13;;
11504;SDS011;5809;53.262;10.408;2023-04-24T04:02:51;1.38;;;1.27;;
11504;SDS011;5809;53.262;10.408;2023-04-24T04:05:17;1.90;;;1.07;;
11504;SDS011;5809;53.262;10.408;2023-04-24T04:07:45;1.50;;;1.10;;
11504;SDS011;5809;53.262;10.408;2023-04-24T04:10:12;2.97;;;1.17;;
11504;SDS011;5809;53.262;10.408;2023-04-24T04:12:39;1.67;;;1.00;;
11504;SDS011;5809;53.262;10.408;2023-04-24T04:15:08;2.07;;;1.40;;
11504;SDS011;5809;53.262;10.408;2023-04-24T04:17:35;1.73;;;1.20;;
11504;SDS011;5809;53.262;10.408;2023-04-24T04:20:03;1.33;;;1.00;;
11504;SDS011;5809;53.262;10.408;2023-04-24T04:22:34;1.53;;;1.30;;
11504;SDS011;5809;53.262;10.408;2023-04-24T04:25:01;1.20;;;1.10;;
11504;SDS011;5809;53.262;10.408;2023-04-24T04:27:28;1.20;;;1.10;;
11504;SDS011;5809;53.262;10.408;2023-04-24T04:29:57;1.87;;;1.17;;
11504;SDS011;5809;53.262;10.408;2023-04-24T04:32:25;1.77;;;1.13;;
11504;SDS011;5809;53.262;10.408;2023-04-24T04:34:52;1.07;;;1.03;;
11504;SDS011;5809;53.262;10.408;2023-04-24T04:37:19;1.10;;;1.00;;
11504;SDS011;5809;53.262;10.408;2023-04-24T04:39:46;2.20;;;1.20;;
11504;SDS011;5809;53.262;10.408;2023-04-24T04:42:13;1.27;;;1.10;;
11504;SDS011;5809;53.262;10.408;2023-04-24T04:44:40;2.77;;;1.10;;
11504;SDS011;5809;53.262;10.408;2023-04-24T04:47:07;1.67;;;1.17;;
11504;SDS011;5809;53.262;10.408;2023-04-24T04:49:37;1.40;;;1.00;;
11504;SDS011;5809;53.262;10.408;2023-04-24T04:52:04;1.20;;;1.10;;
11504;SDS011;5809;53.262;10.408;2023-04-24T04:54:31;1.30;;;1.07;;
11504;SDS011;5809;53.262;10.408;2023-04-24T04:56:58;1.90;;;1.20;;
11504;SDS011;5809;53.262;10.408;2023-04-24T04:59:25;1.30;;;1.20;;
11504;SDS011;5809;53.262;10.408;2023-04-24T05:01:52;1.87;;;1.27;;
11504;SDS011;5809;53.262;10.408;2023-04-24T05:04:19;1.43;;;1.30;;
11504;SDS011;5809;53.262;10.408;2023-04-24T05:06:47;1.40;;;1.03;;
11504;SDS011;5809;53.262;10.408;2023-04-24T05:09:16;1.20;;;1.10;;
11504;SDS011;5809;53.262;10.408;2023-04-24T05:11:43;1.63;;;1.27;;
11504;SDS011;5809;53.262;10.408;2023-04-24T05:14:10;1.30;;;1.20;;
11504;SDS011;5809;53.262;10.408;2023-04-24T05:16:37;1.40;;;1.10;;
11504;SDS011;5809;53.262;10.408;2023-04-24T05:19:05;2.07;;;0.97;;
11504;SDS011;5809;53.262;10.408;2023-04-24T05:21:32;1.10;;;1.00;;
11504;SDS011;5809;53.262;10.408;2023-04-24T05:24:00;1.42;;;1.05;;
11504;SDS011;5809;53.262;10.408;2023-04-24T05:26:27;1.10;;;1.00;;
11504;SDS011;5809;53.262;10.408;2023-04-24T05:28:55;1.58;;;1.30;;
11504;SDS011;5809;53.262;10.408;2023-04-24T05:31:22;1.90;;;1.30;;
11504;SDS011;5809;53.262;10.408;2023-04-24T05:33:50;1.90;;;1.20;;
11504;SDS011;5809;53.262;10.408;2023-04-24T05:36:18;1.20;;;0.93;;
11504;SDS011;5809;53.262;10.408;2023-04-24T05:38:45;1.60;;;1.13;;
11504;SDS011;5809;53.262;10.408;2023-04-24T05:41:14;1.40;;;1.00;;
11504;SDS011;5809;53.262;10.408;2023-04-24T05:43:41;2.78;;;1.10;;
11504;SDS011;5809;53.262;10.408;2023-04-24T05:46:08;2.05;;;1.02;;
11504;SDS011;5809;53.262;10.408;2023-04-24T05:48:35;1.33;;;1.10;;
11504;SDS011;5809;53.262;10.408;2023-04-24T05:51:02;1.10;;;1.00;;
11504;SDS011;5809;53.262;10.408;2023-04-24T05:53:29;1.15;;;1.00;;
11504;SDS011;5809;53.262;10.408;2023-04-24T05:55:57;2.63;;;1.15;;
11504;SDS011;5809;53.262;10.408;2023-04-24T05:58:25;1.38;;;1.00;;
11504;SDS011;5809;53.262;10.408;2023-04-24T06:00:52;1.00;;;1.00;;
11504;SDS011;5809;53.262;10.408;2023-04-24T06:03:20;2.05;;;1.00;;
11504;SDS011;5809;53.262;10.408;2023-04-24T06:05:47;1.20;;;1.10;;
11504;SDS011;5809;53.262;10.408;2023-04-24T06:08:16;2.38;;;1.15;;
11504;SDS011;5809;53.262;10.408;2023-04-24T06:10:43;1.27;;;1.10;;
11504;SDS011;5809;53.262;10.408;2023-04-24T06:13:10;1.10;;;0.95;;
11504;SDS011;5809;53.262;10.408;2023-04-24T06:15:38;3.33;;;1.05;;
11504;SDS011;5809;53.262;10.408;2023-04-24T06:18:05;1.42;;;1.10;;
11504;SDS011;5809;53.262;10.408;2023-04-24T06:20:35;1.65;;;1.08;;
11504;SDS011;5809;53.262;10.408;2023-04-24T06:23:02;0.85;;;0.85;;
11504;SDS011;5809;53.262;10.408;2023-04-24T06:25:28;1.05;;;0.95;;
11504;SDS011;5809;53.262;10.408;2023-04-24T06:27:56;1.60;;;1.10;;
11504;SDS011;5809;53.262;10.408;2023-04-24T06:30:23;0.90;;;0.90;;
11504;SDS011;5809;53.262;10.408;2023-04-24T06:32:52;3.47;;;1.20;;
11504;SDS011;5809;53.262;10.408;2023-04-24T06:35:19;2.65;;;1.23;;
11504;SDS011;5809;53.262;10.408;2023-04-24T06:37:46;2.15;;;1.00;;
11504;SDS011;5809;53.262;10.408;2023-04-24T06:40:13;1.10;;;0.90;;
11504;SDS011;5809;53.262;10.408;2023-04-24T06:42:40;2.10;;;1.20;;
11504;SDS011;5809;53.262;10.408;2023-04-24T06:45:08;0.80;;;0.80;;
11504;SDS011;5809;53.262;10.408;2023-04-24T06:47:35;1.88;;;0.90;;
11504;SDS011;5809;53.262;10.408;2023-04-24T06:50:04;1.10;;;0.90;;
11504;SDS011;5809;53.262;10.408;2023-04-24T06:52:32;0.80;;;0.80;;
11504;SDS011;5809;53.262;10.408;2023-04-24T06:55:02;2.22;;;0.80;;
11504;SDS011;5809;53.262;10.408;2023-04-24T06:57:29;1.67;;;0.80;;
11504;SDS011;5809;53.262;10.408;2023-04-24T06:59:58;0.90;;;0.90;;
11504;SDS011;5809;53.262;10.408;2023-04-24T07:02:24;2.13;;;1.00;;
11504;SDS011;5809;53.262;10.408;2023-04-24T07:04:51;1.58;;;0.90;;
11504;SDS011;5809;53.262;10.408;2023-04-24T07:07:20;2.17;;;0.90;;
11504;SDS011;5809;53.262;10.408;2023-04-24T07:09:48;0.90;;;0.90;;
11504;SDS011;5809;53.262;10.408;2023-04-24T07:12:15;3.25;;;0.80;;
11504;SDS011;5809;53.262;10.408;2023-04-24T07:14:45;0.93;;;0.82;;
11504;SDS011;5809;53.262;10.408;2023-04-24T07:17:12;1.02;;;0.88;;
11504;SDS011;5809;53.262;10.408;2023-04-24T07:19:39;1.10;;;0.90;;
11504;SDS011;5809;53.262;10.408;2023-04-24T07:22:06;1.25;;;0.80;;
11504;SDS011;5809;53.262;10.408;2023-04-24T07:24:35;1.00;;;0.90;;
11504;SDS011;5809;53.262;10.408;2023-04-24T07:27:02;0.90;;;0.75;;
11504;SDS011;5809;53.262;10.408;2023-04-24T07:29:29;0.70;;;0.70;;
11504;SDS011;5809;53.262;10.408;2023-04-24T07:31:55;1.27;;;0.82;;
11504;SDS011;5809;53.262;10.408;2023-04-24T07:34:22;2.10;;;0.70;;
11504;SDS011;5809;53.262;10.408;2023-04-24T07:36:50;1.10;;;1.00;;
11504;SDS011;5809;53.262;10.408;2023-04-24T07:39:17;2.17;;;0.85;;
11504;SDS011;5809;53.262;10.408;2023-04-24T07:41:46;2.33;;;0.95;;
11504;SDS011;5809;53.262;10.408;2023-04-24T07:44:13;0.98;;;0.80;;
11504;SDS011;5809;53.262;10.408;2023-04-24T07:46:40;0.88;;;0.88;;
11504;SDS011;5809;53.262;10.408;2023-04-24T07:49:07;0.80;;;0.80;;
11504;SDS011;5809;53.262;10.408;2023-04-24T07:51:34;1.48;;;0.80;;
11504;SDS011;5809;53.262;10.408;2023-04-24T07:54:03;1.83;;;0.90;;
11504;SDS011;5809;53.262;10.408;2023-04-24T07:56:30;1.58;;;0.98;;
11504;SDS011;5809;53.262;10.408;2023-04-24T07:58:59;0.80;;;0.80;;
11504;SDS011;5809;53.262;10.408;2023-04-24T08:01:27;2.17;;;1.88;;
11504;SDS011;5809;53.262;10.408;2023-04-24T08:03:54;0.88;;;0.80;;
11504;SDS011;5809;53.262;10.408;2023-04-24T08:06:21;1.00;;;0.80;;
11504;SDS011;5809;53.262;10.408;2023-04-24T08:08:48;1.10;;;1.00;;
11504;SDS011;5809;53.262;10.408;2023-04-24T08:11:16;1.33;;;1.00;;
11504;SDS011;5809;53.262;10.408;2023-04-24T08:13:43;2.30;;;0.88;;
11504;SDS011;5809;53.262;10.408;2023-04-24T08:16:11;2.25;;;1.20;;
11504;SDS011;5809;53.262;10.408;2023-04-24T08:18:38;1.75;;;1.00;;
11504;SDS011;5809;53.262;10.408;2023-04-24T08:21:06;1.48;;;1.20;;
11504;SDS011;5809;53.262;10.408;2023-04-24T08:23:33;2.30;;;2.03;;
11504;SDS011;5809;53.262;10.408;2023-04-24T08:25:59;1.98;;;1.77;;
11504;SDS011;5809;53.262;10.408;2023-04-24T08:28:28;1.90;;;1.80;;
11504;SDS011;5809;53.262;10.408;2023-04-24T08:30:55;1.90;;;1.40;;
11504;SDS011;5809;53.262;10.408;2023-04-24T08:33:23;1.60;;;1.48;;
11504;SDS011;5809;53.262;10.408;2023-04-24T08:35:50;2.08;;;1.40;;
11504;SDS011;5809;53.262;10.408;2023-04-24T08:38:17;1.70;;;1.42;;
11504;SDS011;5809;53.262;10.408;2023-04-24T08:40:44;2.05;;;1.75;;
11504;SDS011;5809;53.262;10.408;2023-04-24T08:43:14;2.85;;;1.50;;
11504;SDS011;5809;53.262;10.408;2023-04-24T08:45:42;2.08;;;1.88;;
11504;SDS011;5809;53.262;10.408;2023-04-24T08:48:09;2.90;;;1.67;;
11504;SDS011;5809;53.262;10.408;2023-04-24T08:50:38;2.05;;;1.85;;
11504;SDS011;5809;53.262;10.408;2023-04-24T08:53:06;1.73;;;1.63;;
11504;SDS011;5809;53.262;10.408;2023-04-24T08:55:34;2.42;;;2.05;;
11504;SDS011;5809;53.262;10.408;2023-04-24T08:58:01;2.85;;;1.80;;
11504;SDS011;5809;53.262;10.408;2023-04-24T09:00:29;2.47;;;1.90;;
11504;SDS011;5809;53.262;10.408;2023-04-24T09:02:56;2.60;;;1.90;;
11504;SDS011;5809;53.262;10.408;2023-04-24T09:05:23;1.70;;;1.60;;
11504;SDS011;5809;53.262;10.408;2023-04-24T09:07:53;3.50;;;1.85;;
11504;SDS011;5809;53.262;10.408;2023-04-24T09:10:21;2.30;;;1.98;;
11504;SDS011;5809;53.262;10.408;2023-04-24T09:12:50;3.55;;;2.65;;
11504;SDS011;5809;53.262;10.408;2023-04-24T09:15:17;3.45;;;2.60;;
11504;SDS011;5809;53.262;10.408;2023-04-24T09:17:45;5.63;;;3.88;;
11504;SDS011;5809;53.262;10.408;2023-04-24T09:20:12;5.25;;;4.20;;
11504;SDS011;5809;53.262;10.408;2023-04-24T09:22:39;4.55;;;4.13;;
11504;SDS011;5809;53.262;10.408;2023-04-24T09:25:09;4.82;;;3.90;;
11504;SDS011;5809;53.262;10.408;2023-04-24T09:27:38;7.57;;;4.30;;
11504;SDS011;5809;53.262;10.408;2023-04-24T09:30:08;4.88;;;4.38;;
11504;SDS011;5809;53.262;10.408;2023-04-24T09:32:36;5.20;;;4.70;;
11504;SDS011;5809;53.262;10.408;2023-04-24T09:35:10;4.82;;;4.43;;
11504;SDS011;5809;53.262;10.408;2023-04-24T09:37:38;5.07;;;4.57;;
11504;SDS011;5809;53.262;10.408;2023-04-24T09:42:53;4.43;;;3.90;;
11504;SDS011;5809;53.262;10.408;2023-04-24T09:45:21;4.00;;;3.60;;
11504;SDS011;5809;53.262;10.408;2023-04-24T09:47:53;4.07;;;3.67;;
11504;SDS011;5809;53.262;10.408;2023-04-24T09:50:22;4.60;;;4.13;;
11504;SDS011;5809;53.262;10.408;2023-04-24T09:52:56;4.68;;;4.15;;
11504;SDS011;5809;53.262;10.408;2023-04-24T09:55:25;4.40;;;3.75;;
11504;SDS011;5809;53.262;10.408;2023-04-24T09:57:53;4.05;;;3.65;;
11504;SDS011;5809;53.262;10.408;2023-04-24T10:00:21;4.20;;;3.80;;
11504;SDS011;5809;53.262;10.408;2023-04-24T10:02:50;5.15;;;4.00;;
11504;SDS011;5809;53.262;10.408;2023-04-24T10:05:18;5.35;;;4.22;;
11504;SDS011;5809;53.262;10.408;2023-04-24T10:07:48;4.30;;;3.90;;
11504;SDS011;5809;53.262;10.408;2023-04-24T10:10:15;6.88;;;4.28;;
11504;SDS011;5809;53.262;10.408;2023-04-24T10:12:44;5.72;;;4.65;;
11504;SDS011;5809;53.262;10.408;2023-04-24T10:15:12;8.50;;;5.45;;
11504;SDS011;5809;53.262;10.408;2023-04-24T10:17:40;5.35;;;4.70;;
11504;SDS011;5809;53.262;10.408;2023-04-24T10:20:08;5.60;;;4.43;;
11504;SDS011;5809;53.262;10.408;2023-04-24T10:22:35;5.30;;;4.40;;
11504;SDS011;5809;53.262;10.408;2023-04-24T10:25:03;5.47;;;4.95;;
11504;SDS011;5809;53.262;10.408;2023-04-24T10:27:32;5.65;;;4.50;;
11504;SDS011;5809;53.262;10.408;2023-04-24T10:30:01;5.70;;;4.68;;
11504;SDS011;5809;53.262;10.408;2023-04-24T10:32:29;6.32;;;4.80;;
11504;SDS011;5809;53.262;10.408;2023-04-24T10:34:56;6.95;;;5.03;;
11504;SDS011;5809;53.262;10.408;2023-04-24T10:37:23;6.18;;;5.05;;
11504;SDS011;5809;53.262;10.408;2023-04-24T10:39:52;6.18;;;5.10;;
11504;SDS011;5809;53.262;10.408;2023-04-24T10:42:19;5.38;;;4.63;;
11504;SDS011;5809;53.262;10.408;2023-04-24T10:44:47;5.78;;;5.18;;
11504;SDS011;5809;53.262;10.408;2023-04-24T10:47:16;5.00;;;4.50;;
11504;SDS011;5809;53.262;10.408;2023-04-24T10:49:43;7.20;;;5.05;;
11504;SDS011;5809;53.262;10.408;2023-04-24T10:52:10;5.28;;;4.78;;
11504;SDS011;5809;53.262;10.408;2023-04-24T10:54:41;7.28;;;5.50;;
11504;SDS011;5809;53.262;10.408;2023-04-24T10:57:25;5.40;;;4.93;;
11504;SDS011;5809;53.262;10.408;2023-04-24T11:00:15;6.95;;;4.45;;
11504;SDS011;5809;53.262;10.408;2023-04-24T11:02:46;5.03;;;4.50;;
11504;SDS011;5809;53.262;10.408;2023-04-24T11:05:15;5.47;;;4.75;;
11504;SDS011;5809;53.262;10.408;2023-04-24T11:10:39;5.90;;;4.40;;
11504;SDS011;5809;53.262;10.408;2023-04-24T11:13:06;5.20;;;3.97;;
11504;SDS011;5809;53.262;10.408;2023-04-24T11:15:34;6.10;;;4.45;;
11504;SDS011;5809;53.262;10.408;2023-04-24T11:18:03;6.05;;;4.70;;
11504;SDS011;5809;53.262;10.408;2023-04-24T11:20:30;6.07;;;4.85;;
11504;SDS011;5809;53.262;10.408;2023-04-24T11:22:58;4.95;;;4.45;;
11504;SDS011;5809;53.262;10.408;2023-04-24T11:25:31;4.30;;;3.90;;
11504;SDS011;5809;53.262;10.408;2023-04-24T11:28:02;5.07;;;3.72;;
11504;SDS011;5809;53.262;10.408;2023-04-24T11:30:31;4.68;;;4.28;;
11504;SDS011;5809;53.262;10.408;2023-04-24T11:33:03;3.50;;;3.20;;
11504;SDS011;5809;53.262;10.408;2023-04-24T11:35:34;2.95;;;2.65;;
11504;SDS011;5809;53.262;10.408;2023-04-24T11:38:05;3.58;;;2.80;;
11504;SDS011;5809;53.262;10.408;2023-04-24T11:40:33;2.63;;;2.42;;
11504;SDS011;5809;53.262;10.408;2023-04-24T11:43:00;3.42;;;2.40;;
11504;SDS011;5809;53.262;10.408;2023-04-24T11:45:28;4.03;;;2.67;;
11504;SDS011;5809;53.262;10.408;2023-04-24T11:47:56;4.68;;;2.60;;
11504;SDS011;5809;53.262;10.408;2023-04-24T11:50:26;3.67;;;2.83;;
11504;SDS011;5809;53.262;10.408;2023-04-24T11:52:54;4.97;;;2.70;;
11504;SDS011;5809;53.262;10.408;2023-04-24T11:55:23;3.25;;;2.95;;
11504;SDS011;5809;53.262;10.408;2023-04-24T11:57:53;3.67;;;2.88;;
11504;SDS011;5809;53.262;10.408;2023-04-24T12:00:21;3.30;;;3.00;;
11504;SDS011;5809;53.262;10.408;2023-04-24T12:02:49;4.47;;;2.88;;
11504;SDS011;5809;53.262;10.408;2023-04-24T12:05:20;3.00;;;2.80;;
11504;SDS011;5809;53.262;10.408;2023-04-24T12:07:49;3.35;;;3.03;;
11504;SDS011;5809;53.262;10.408;2023-04-24T12:10:19;4.65;;;3.13;;
11504;SDS011;5809;53.262;10.408;2023-04-24T12:12:47;3.45;;;3.15;;
11504;SDS011;5809;53.262;10.408;2023-04-24T12:15:15;3.38;;;2.85;;
11504;SDS011;5809;53.262;10.408;2023-04-24T12:17:43;3.92;;;3.40;;
11504;SDS011;5809;53.262;10.408;2023-04-24T12:20:11;3.28;;;2.97;;
11504;SDS011;5809;53.262;10.408;2023-04-24T12:22:45;3.00;;;2.80;;
11504;SDS011;5809;53.262;10.408;2023-04-24T12:25:14;3.35;;;2.60;;
11504;SDS011;5809;53.262;10.408;2023-04-24T12:27:42;3.45;;;2.85;;
11504;SDS011;5809;53.262;10.408;2023-04-24T12:30:10;2.90;;;2.70;;
11504;SDS011;5809;53.262;10.408;2023-04-24T12:32:42;5.53;;;3.80;;
11504;SDS011;5809;53.262;10.408;2023-04-24T12:35:10;3.92;;;3.10;;
11504;SDS011;5809;53.262;10.408;2023-04-24T12:37:36;3.55;;;3.25;;
11504;SDS011;5809;53.262;10.408;2023-04-24T12:40:05;5.80;;;3.67;;
11504;SDS011;5809;53.262;10.408;2023-04-24T12:42:35;2.90;;;2.70;;
11504;SDS011;5809;53.262;10.408;2023-04-24T12:45:07;3.30;;;3.00;;
11504;SDS011;5809;53.262;10.408;2023-04-24T12:47:37;2.85;;;2.65;;
11504;SDS011;5809;53.262;10.408;2023-04-24T12:50:05;3.28;;;2.40;;
11504;SDS011;5809;53.262;10.408;2023-04-24T12:52:33;3.53;;;2.85;;
11504;SDS011;5809;53.262;10.408;2023-04-24T12:55:00;2.90;;;2.70;;
11504;SDS011;5809;53.262;10.408;2023-04-24T12:57:28;2.50;;;2.30;;
11504;SDS011;5809;53.262;10.408;2023-04-24T12:59:57;3.42;;;2.30;;
11504;SDS011;5809;53.262;10.408;2023-04-24T13:02:26;2.92;;;2.30;;
11504;SDS011;5809;53.262;10.408;2023-04-24T13:04:55;2.20;;;2.00;;
11504;SDS011;5809;53.262;10.408;2023-04-24T13:07:22;2.72;;;2.35;;
11504;SDS011;5809;53.262;10.408;2023-04-24T13:09:49;2.60;;;2.40;;
11504;SDS011;5809;53.262;10.408;2023-04-24T13:12:17;4.53;;;2.03;;
11504;SDS011;5809;53.262;10.408;2023-04-24T13:14:44;2.53;;;2.13;;
11504;SDS011;5809;53.262;10.408;2023-04-24T13:17:13;2.58;;;2.25;;
11504;SDS011;5809;53.262;10.408;2023-04-24T13:19:40;3.10;;;2.08;;
11504;SDS011;5809;53.262;10.408;2023-04-24T13:22:08;2.83;;;2.28;;
11504;SDS011;5809;53.262;10.408;2023-04-24T13:24:36;1.90;;;1.80;;
11504;SDS011;5809;53.262;10.408;2023-04-24T13:27:04;1.90;;;1.80;;
11504;SDS011;5809;53.262;10.408;2023-04-24T13:29:32;2.13;;;1.92;;
11504;SDS011;5809;53.262;10.408;2023-04-24T13:31:59;2.25;;;2.05;;
11504;SDS011;5809;53.262;10.408;2023-04-24T13:34:28;1.90;;;1.80;;
11504;SDS011;5809;53.262;10.408;2023-04-24T13:36:56;2.10;;;1.90;;
11504;SDS011;5809;53.262;10.408;2023-04-24T13:39:23;3.15;;;1.70;;
11504;SDS011;5809;53.262;10.408;2023-04-24T13:41:51;1.98;;;1.60;;
11504;SDS011;5809;53.262;10.408;2023-04-24T13:44:18;2.65;;;2.10;;
11504;SDS011;5809;53.262;10.408;2023-04-24T13:46:49;1.77;;;1.67;;
11504;SDS011;5809;53.262;10.408;2023-04-24T13:49:18;1.70;;;1.60;;
11504;SDS011;5809;53.262;10.408;2023-04-24T13:51:48;2.63;;;1.77;;
11504;SDS011;5809;53.262;10.408;2023-04-24T13:54:15;3.17;;;2.17;;
11504;SDS011;5809;53.262;10.408;2023-04-24T13:56:42;2.05;;;1.88;;
11504;SDS011;5809;53.262;10.408;2023-04-24T13:59:09;3.05;;;1.95;;
11504;SDS011;5809;53.262;10.408;2023-04-24T14:01:36;1.90;;;1.80;;
11504;SDS011;5809;53.262;10.408;2023-04-24T14:04:03;1.83;;;1.73;;
11504;SDS011;5809;53.262;10.408;2023-04-24T14:06:30;2.10;;;1.90;;
11504;SDS011;5809;53.262;10.408;2023-04-24T14:08:58;1.70;;;1.60;;
11504;SDS011;5809;53.262;10.408;2023-04-24T14:11:25;1.90;;;1.80;;
11504;SDS011;5809;53.262;10.408;2023-04-24T14:13:53;1.95;;;1.70;;
11504;SDS011;5809;53.262;10.408;2023-04-24T14:16:21;3.42;;;1.52;;
11504;SDS011;5809;53.262;10.408;2023-04-24T14:18:49;3.20;;;2.17;;
11504;SDS011;5809;53.262;10.408;2023-04-24T14:21:16;2.15;;;2.00;;
11504;SDS011;5809;53.262;10.408;2023-04-24T14:23:42;2.05;;;1.85;;
11504;SDS011;5809;53.262;10.408;2023-04-24T14:26:11;2.03;;;1.90;;
11504;SDS011;5809;53.262;10.408;2023-04-24T14:28:38;2.20;;;2.00;;
11504;SDS011;5809;53.262;10.408;2023-04-24T14:31:06;1.95;;;1.85;;
11504;SDS011;5809;53.262;10.408;2023-04-24T14:33:33;1.85;;;1.67;;
11504;SDS011;5809;53.262;10.408;2023-04-24T14:36:00;3.58;;;2.00;;
11504;SDS011;5809;53.262;10.408;2023-04-24T14:38:27;3.08;;;1.75;;
11504;SDS011;5809;53.262;10.408;2023-04-24T14:40:55;2.08;;;1.88;;
11504;SDS011;5809;53.262;10.408;2023-04-24T14:43:23;1.85;;;1.75;;
11504;SDS011;5809;53.262;10.408;2023-04-24T14:45:50;1.75;;;1.65;;
11504;SDS011;5809;53.262;10.408;2023-04-24T14:48:17;1.70;;;1.60;;
11504;SDS011;5809;53.262;10.408;2023-04-24T14:50:44;1.55;;;1.40;;
11504;SDS011;5809;53.262;10.408;2023-04-24T14:53:11;1.40;;;1.15;;
11504;SDS011;5809;53.262;10.408;2023-04-24T14:55:38;1.30;;;1.10;;
11504;SDS011;5809;53.262;10.408;2023-04-24T14:58:06;1.45;;;0.90;;